Terminal Aerodrome Forecast
Issued by NWS Mt. Holly, NJ

Home | Current Version | Previous Version | Text Only | Print | Product List | Glossary On
Versions: 1 2 3 4 5 6 7 8 9 10 11 12 13 14
261
FTUS41 KPHI 252325
TAFABE
TAF
KABE 252325Z 2600/2624 VRB02KT P6SM VCSH SCT007 OVC015
     FM260500 30006KT P6SM SCT012 BKN029
     FM260600 30007KT P6SM SCT015 BKN045
     FM261500 29011G17KT P6SM SKC=

USA.gov is the U.S. government's official web portal to all federal, state and local government web resources and services.